首页
METAR-TAF:

METAR-TAF

机场 :

Decorah Municipal Airport

Decorah, 艾奥瓦州, 美国

纬度: 43-17N, 经度: 091-44W, 海拔: 353米

当前天气观测

该预报发布于19分钟前的15:35 UTC
风速7节,风向北转东北
温度 0°C
湿度 100%
气压 996 hPa
能見度: 14.5公里
散云层高于500英尺
散云层高于1300英尺
多云层高于1900英尺

METAR: KDEH 151535Z AUTO 03007KT 9SM SCT005 SCT013 BKN019 00/00 A2942 RMK AO2

时间: 09:54 (15:54 UTC)


TAF: 丢失

超过4000个机场的气象观测和天气预报(METAR&TAF报告)。

可查询的气象台以黄色和红色小点在地图上表示。

将鼠标移到小点上方,可查看气象台名称。

然后点击查看天气观测和预报。

如需切换地图:点击带黑十字的绿色按钮放大地图;点击带横线的绿色按钮缩小地图;或者点击绿色箭头查看邻近地区的地图。


METAR-TAF: